Time;durP1;ratioP1;P1;durP2;ratioP2;P2;SDS_P1;SDS_P2;PMS_P1;PMS_P2;Temp;Humidity;BMP_temperature;BMP_pressure;BME280_temperature;BME280_humidity;BME280_pressure;Samples;Min_cycle;Max_cycle;Signal;HPM_P1;HPM_P2
2021/01/02 00:02:47;;;;;;;17.50;15.68;;;24.00;60.70;;;;;;4921964;28;20287;-52
2021/01/02 00:05:18;;;;;;;16.48;13.75;;;24.00;60.80;;;;;;4940716;29;20233;-52
2021/01/02 00:08:19;;;;;;;16.38;13.40;;;23.90;60.40;;;;;;4943115;29;20257;-52
2021/01/02 00:11:24;;;;;;;13.75;11.63;;;23.90;60.30;;;;;;4944926;29;20615;-51
2021/01/02 00:14:15;;;;;;;13.68;11.40;;;24.00;61.00;;;;;;4936790;28;20278;-50
2021/01/02 00:16:58;;;;;;;14.20;11.40;;;24.00;60.60;;;;;;4943978;28;20256;-50
2021/01/02 00:19:55;;;;;;;13.65;11.45;;;24.00;60.60;;;;;;4899617;28;20609;-48
2021/01/02 00:22:35;;;;;;;15.80;12.52;;;23.90;60.70;;;;;;4889998;28;20333;-53
2021/01/02 00:25:06;;;;;;;13.77;12.18;;;23.90;60.80;;;;;;4901406;28;20345;-54
2021/01/02 00:27:47;;;;;;;15.50;12.25;;;23.90;60.60;;;;;;4871457;28;20243;-53
2021/01/02 00:30:29;;;;;;;15.88;12.90;;;23.90;60.80;;;;;;4898673;28;20284;-53
2021/01/02 00:33:01;;;;;;;15.45;13.80;;;23.90;61.00;;;;;;4890809;28;20235;-52
2021/01/02 00:35:36;;;;;;;15.82;13.45;;;23.90;60.90;;;;;;4889105;28;20231;-51
2021/01/02 00:38:07;;;;;;;15.55;13.75;;;23.90;60.90;;;;;;4889222;28;20245;-52
2021/01/02 00:40:39;;;;;;;16.05;14.23;;;23.90;60.90;;;;;;4887451;28;20239;-53
2021/01/02 00:43:09;;;;;;;12.65;11.35;;;23.90;60.90;;;;;;4895638;28;20245;-55
2021/01/02 00:45:40;;;;;;;17.45;12.88;;;23.90;60.90;;;;;;4927186;28;20250;-54
2021/01/02 00:48:11;;;;;;;14.63;12.20;;;23.90;60.80;;;;;;4930623;28;20695;-52
2021/01/02 00:50:42;;;;;;;12.18;10.98;;;23.90;60.70;;;;;;4928567;28;20300;-49
2021/01/02 00:53:59;;;;;;;12.35;10.77;;;23.90;60.60;;;;;;4927631;28;20240;-53
2021/01/02 00:56:30;;;;;;;12.23;10.93;;;24.00;60.30;;;;;;4898175;28;20317;-50
2021/01/02 00:59:39;;;;;;;15.40;10.95;;;24.00;60.30;;;;;;4889060;29;20278;-52
2021/01/02 01:02:49;;;;;;;16.30;12.13;;;24.00;60.30;;;;;;4888187;28;20239;-54
2021/01/02 01:05:22;;;;;;;13.77;10.23;;;24.00;60.40;;;;;;4864162;28;21389;-53
2021/01/02 01:07:58;;;;;;;15.02;11.55;;;24.00;60.10;;;;;;4881686;29;20231;-54
2021/01/02 01:10:29;;;;;;;13.10;11.43;;;24.10;60.00;;;;;;4887569;29;20239;-50
2021/01/02 01:13:06;;;;;;;14.57;11.75;;;24.10;60.10;;;;;;4885999;28;20240;-49
2021/01/02 01:15:37;;;;;;;17.55;13.40;;;24.10;60.20;;;;;;4886424;29;20325;-51
2021/01/02 01:18:28;;;;;;;21.65;16.98;;;24.10;60.30;;;;;;4885435;28;20243;-49
2021/01/02 01:20:59;;;;;;;16.80;14.82;;;24.20;60.50;;;;;;4910740;29;20258;-51
2021/01/02 01:23:49;;;;;;;15.73;13.65;;;24.20;60.20;;;;;;4953781;28;20239;-50
2021/01/02 01:26:45;;;;;;;16.02;12.85;;;24.20;60.10;;;;;;4885638;28;21201;-54
2021/01/02 01:29:19;;;;;;;13.23;11.75;;;24.30;59.80;;;;;;4882814;28;20236;-49
2021/01/02 01:31:52;;;;;;;14.10;11.93;;;24.30;59.80;;;;;;4885079;29;20962;-54
2021/01/02 01:34:23;;;;;;;17.00;12.88;;;24.30;59.80;;;;;;4850044;29;20259;-54
2021/01/02 01:36:53;;;;;;;14.05;12.10;;;24.30;59.90;;;;;;4850661;29;20229;-51
2021/01/02 01:39:25;;;;;;;14.68;12.70;;;24.30;60.00;;;;;;4850868;29;20335;-54
2021/01/02 01:41:59;;;;;;;14.27;12.77;;;24.30;59.90;;;;;;4851372;29;20366;-51
2021/01/02 01:44:45;;;;;;;13.90;12.30;;;24.40;59.90;;;;;;4883590;29;20234;-51
2021/01/02 01:47:20;;;;;;;12.88;11.48;;;24.40;59.90;;;;;;4907231;28;20241;-51
2021/01/02 01:50:17;;;;;;;13.65;12.25;;;24.40;59.80;;;;;;4910581;29;20233;-52
2021/01/02 01:53:34;;;;;;;13.07;11.68;;;24.50;59.80;;;;;;4940274;28;20233;-53
2021/01/02 01:56:15;;;;;;;12.57;10.73;;;24.60;59.80;;;;;;4946307;28;20229;-49
2021/01/02 01:59:19;;;;;;;13.38;10.45;;;24.60;59.70;;;;;;4954418;28;20236;-50
2021/01/02 02:01:51;;;;;;;12.63;10.45;;;24.70;59.30;;;;;;4967158;28;20591;-52
2021/01/02 02:05:02;;;;;;;11.82;10.50;;;24.70;59.20;;;;;;4963627;28;20239;-55
2021/01/02 02:07:42;;;;;;;12.65;9.90;;;24.80;58.90;;;;;;4964411;28;20260;-49
2021/01/02 02:10:15;;;;;;;13.43;11.00;;;24.80;58.90;;;;;;4967282;28;20248;-52
2021/01/02 02:12:52;;;;;;;12.50;11.20;;;24.80;58.70;;;;;;4923313;29;20328;-52
2021/01/02 02:15:24;;;;;;;12.80;10.77;;;24.90;58.70;;;;;;4926556;28;20308;-49
2021/01/02 02:17:56;;;;;;;12.02;10.52;;;24.90;58.60;;;;;;4924222;28;20566;-53
2021/01/02 02:20:27;;;;;;;11.52;10.43;;;24.90;58.60;;;;;;4917532;28;20306;-51
2021/01/02 02:23:03;;;;;;;11.50;10.40;;;25.00;58.60;;;;;;4863911;28;20240;-52
2021/01/02 02:25:49;;;;;;;11.20;9.95;;;25.00;58.70;;;;;;4864374;28;20283;-51
2021/01/02 02:29:02;;;;;;;11.05;9.95;;;25.00;58.70;;;;;;4863117;28;20247;-50
2021/01/02 02:31:32;;;;;;;12.15;10.40;;;25.10;58.60;;;;;;4863638;28;20239;-55
2021/01/02 02:34:03;;;;;;;12.18;10.13;;;25.10;58.60;;;;;;4754735;29;20238;-52
2021/01/02 02:36:36;;;;;;;13.15;10.43;;;25.20;58.60;;;;;;4764105;29;21905;-49
2021/01/02 02:39:08;;;;;;;12.32;9.98;;;25.20;58.40;;;;;;4760892;29;20671;-54
2021/01/02 02:41:40;;;;;;;10.40;9.38;;;25.20;58.30;;;;;;4759806;29;20315;-51
2021/01/02 02:44:12;;;;;;;11.52;8.80;;;25.30;58.30;;;;;;4798275;29;20233;-52
2021/01/02 02:46:44;;;;;;;10.95;8.80;;;25.30;58.30;;;;;;4821055;28;20236;-50
2021/01/02 02:49:17;;;;;;;12.10;10.40;;;25.40;58.50;;;;;;4866151;28;20302;-52
2021/01/02 02:51:49;;;;;;;10.27;9.27;;;25.40;58.40;;;;;;4870155;28;20232;-52
2021/01/02 02:54:21;;;;;;;9.63;8.73;;;25.40;58.50;;;;;;4866117;28;20236;-52
2021/01/02 02:56:51;;;;;;;10.85;9.30;;;25.50;58.50;;;;;;4869627;28;20278;-51
2021/01/02 02:59:23;;;;;;;9.30;8.40;;;25.60;58.50;;;;;;4912065;28;20380;-49
2021/01/02 03:01:53;;;;;;;10.05;9.05;;;25.60;58.20;;;;;;4924055;29;20234;-52
2021/01/02 03:04:24;;;;;;;11.60;9.82;;;25.70;58.20;;;;;;4931185;28;20624;-51
2021/01/02 03:06:55;;;;;;;11.07;10.07;;;25.80;57.80;;;;;;4959691;28;20719;-50
2021/01/02 03:09:26;;;;;;;11.07;9.85;;;25.90;57.30;;;;;;4962325;28;20653;-53
2021/01/02 03:11:57;;;;;;;10.68;9.60;;;26.00;57.20;;;;;;4960974;28;20237;-50
2021/01/02 03:14:29;;;;;;;9.50;8.60;;;26.10;57.00;;;;;;4966891;28;20248;-50
2021/01/02 03:17:00;;;;;;;11.27;9.93;;;26.10;57.00;;;;;;4964801;28;20247;-51
2021/01/02 03:19:30;;;;;;;10.15;9.10;;;26.20;56.70;;;;;;4955546;28;20241;-52
2021/01/02 03:22:01;;;;;;;10.98;9.88;;;26.20;56.60;;;;;;4955809;28;20233;-51
2021/01/02 03:24:31;;;;;;;9.05;8.18;;;26.30;56.70;;;;;;4961768;28;20232;-51
2021/01/02 03:27:02;;;;;;;10.02;8.68;;;26.30;56.50;;;;;;4960786;28;20274;-51
2021/01/02 03:29:34;;;;;;;10.48;8.95;;;26.40;56.60;;;;;;4957964;28;20969;-53
2021/01/02 03:32:05;;;;;;;10.52;9.48;;;26.50;56.50;;;;;;4956999;28;20309;-49
2021/01/02 03:34:38;;;;;;;9.90;8.98;;;26.50;56.00;;;;;;4960233;28;20688;-51
2021/01/02 03:37:09;;;;;;;9.88;8.85;;;26.60;56.20;;;;;;4962029;28;20532;-50
2021/01/02 03:39:40;;;;;;;10.60;8.88;;;26.70;55.90;;;;;;4939403;28;20248;-50
2021/01/02 03:42:12;;;;;;;9.88;8.88;;;26.70;55.90;;;;;;4938988;28;20753;-52
2021/01/02 03:44:43;;;;;;;10.55;8.57;;;26.80;55.80;;;;;;4936426;28;20245;-49
2021/01/02 03:47:14;;;;;;;10.40;8.68;;;26.90;56.50;;;;;;4934621;28;20249;-51
2021/01/02 03:49:44;;;;;;;8.80;7.97;;;27.00;55.70;;;;;;4934954;28;20248;-50
2021/01/02 03:52:15;;;;;;;9.32;8.43;;;27.00;55.60;;;;;;4939393;28;20702;-51
2021/01/02 03:54:46;;;;;;;10.98;7.97;;;27.10;55.70;;;;;;4942717;28;20233;-53
2021/01/02 03:57:16;;;;;;;9.23;8.43;;;27.20;55.80;;;;;;4942896;29;20324;-50
2021/01/02 03:59:48;;;;;;;9.07;8.27;;;27.30;55.50;;;;;;4947267;29;20349;-51
2021/01/02 04:02:18;;;;;;;8.68;7.75;;;27.40;55.40;;;;;;4947349;29;20240;-49
2021/01/02 04:04:50;;;;;;;8.43;7.63;;;27.40;55.60;;;;;;4945502;28;20283;-53
2021/01/02 04:07:21;;;;;;;8.50;7.70;;;27.60;55.30;;;;;;4963883;28;20320;-51
2021/01/02 04:09:52;;;;;;;8.13;7.32;;;27.70;55.40;;;;;;4969024;28;20286;-51
2021/01/02 04:12:22;;;;;;;7.43;6.70;;;27.70;55.20;;;;;;4969224;28;20353;-53
2021/01/02 04:14:54;;;;;;;8.65;7.75;;;27.90;55.20;;;;;;4969102;28;20252;-51
2021/01/02 04:17:25;;;;;;;8.10;7.38;;;27.90;54.90;;;;;;4967729;28;20586;-50
2021/01/02 04:19:56;;;;;;;9.02;8.13;;;28.00;54.60;;;;;;4967528;28;20293;-50
2021/01/02 04:22:30;;;;;;;8.60;7.70;;;28.10;54.50;;;;;;4969657;28;20251;-51
2021/01/02 04:25:01;;;;;;;8.38;7.30;;;28.10;54.40;;;;;;4968610;28;20308;-52
2021/01/02 04:27:32;;;;;;;8.15;7.35;;;28.20;54.20;;;;;;4969154;28;20255;-52
2021/01/02 04:30:04;;;;;;;7.43;6.72;;;28.30;54.20;;;;;;4967255;28;20714;-50
2021/01/02 04:32:35;;;;;;;7.28;6.57;;;28.30;54.00;;;;;;4967647;28;20237;-50
2021/01/02 04:35:06;;;;;;;7.70;7.00;;;28.40;54.10;;;;;;4968761;28;20290;-49
2021/01/02 04:37:36;;;;;;;8.57;6.78;;;28.50;53.90;;;;;;4956697;28;20628;-53
2021/01/02 04:40:08;;;;;;;7.55;6.80;;;28.50;53.90;;;;;;4967654;28;20351;-53
2021/01/02 04:42:42;;;;;;;7.60;6.80;;;28.60;53.70;;;;;;4968719;28;20319;-48
2021/01/02 04:45:15;;;;;;;8.07;6.85;;;28.70;53.90;;;;;;4968146;28;20225;-51
2021/01/02 04:47:46;;;;;;;8.63;6.90;;;28.80;54.00;;;;;;4966651;28;20315;-48
2021/01/02 04:50:18;;;;;;;8.40;7.63;;;28.80;53.60;;;;;;4969289;28;20240;-52
2021/01/02 04:52:49;;;;;;;8.50;7.70;;;29.00;53.10;;;;;;4968471;28;20240;-54
2021/01/02 04:55:19;;;;;;;8.57;7.55;;;29.00;52.70;;;;;;4927746;29;21031;-54
2021/01/02 04:57:50;;;;;;;7.53;6.72;;;29.10;52.80;;;;;;4909060;29;20257;-49
2021/01/02 05:00:22;;;;;;;9.55;8.18;;;29.20;52.60;;;;;;4929897;28;20320;-52
2021/01/02 05:02:53;;;;;;;8.75;7.95;;;29.30;52.40;;;;;;4948246;28;20758;-49
2021/01/02 05:05:23;;;;;;;8.75;7.93;;;29.30;51.80;;;;;;4948867;29;20335;-53
2021/01/02 05:07:54;;;;;;;8.32;7.60;;;29.40;51.80;;;;;;4949504;29;20316;-51
2021/01/02 05:10:25;;;;;;;8.80;8.00;;;29.40;51.50;;;;;;4949756;29;20229;-51
2021/01/02 05:13:08;;;;;;;8.00;7.32;;;29.50;51.60;;;;;;4948366;28;20320;-51
2021/01/02 05:15:40;;;;;;;8.68;7.85;;;29.50;51.20;;;;;;4948656;29;20696;-51
2021/01/02 05:18:12;;;;;;;7.75;7.03;;;29.50;51.40;;;;;;4943659;29;20375;-54
2021/01/02 05:20:43;;;;;;;8.75;7.95;;;29.60;51.50;;;;;;4944139;29;20778;-53
2021/01/02 05:23:14;;;;;;;7.78;7.07;;;29.70;51.30;;;;;;4949049;29;20856;-48
2021/01/02 05:25:45;;;;;;;7.38;6.70;;;29.70;51.20;;;;;;4993978;28;20238;-51
2021/01/02 05:28:18;;;;;;;8.57;7.82;;;29.80;51.50;;;;;;4987898;28;20235;-50
2021/01/02 05:30:50;;;;;;;8.93;8.13;;;29.80;51.40;;;;;;5001303;28;20452;-49
2021/01/02 05:33:21;;;;;;;8.00;7.30;;;29.80;50.60;;;;;;5046240;28;20260;-51
2021/01/02 05:35:51;;;;;;;10.40;8.43;;;29.90;50.90;;;;;;5045966;28;20250;-52
2021/01/02 05:38:23;;;;;;;9.60;8.80;;;29.90;50.50;;;;;;5045234;28;20233;-51
2021/01/02 05:40:54;;;;;;;9.35;8.45;;;30.00;50.10;;;;;;5046586;28;20583;-50
2021/01/02 05:43:25;;;;;;;9.10;8.25;;;30.00;50.20;;;;;;5046631;28;20240;-51
2021/01/02 05:45:57;;;;;;;8.98;8.18;;;30.00;50.10;;;;;;5046456;28;20238;-52
2021/01/02 05:48:29;;;;;;;9.57;8.25;;;30.10;50.10;;;;;;5043869;28;20303;-51
2021/01/02 05:51:00;;;;;;;9.15;8.35;;;30.10;50.00;;;;;;5031538;28;20243;-54
2021/01/02 05:53:31;;;;;;;9.88;8.88;;;30.10;50.10;;;;;;4967274;28;20236;-49
2021/01/02 05:56:08;;;;;;;9.45;8.55;;;30.10;49.80;;;;;;4969964;28;20228;-54
2021/01/02 05:58:41;;;;;;;9.82;8.93;;;30.20;50.30;;;;;;4971022;28;20317;-52
2021/01/02 06:01:14;;;;;;;10.13;9.27;;;30.20;50.10;;;;;;4970718;28;20308;-53
2021/01/02 06:03:45;;;;;;;10.98;8.93;;;30.20;49.40;;;;;;4971617;28;20232;-50
2021/01/02 06:06:18;;;;;;;9.63;8.70;;;30.30;49.60;;;;;;4971091;28;20778;-51
2021/01/02 06:08:50;;;;;;;9.02;8.13;;;30.30;49.70;;;;;;4969993;28;20687;-50
2021/01/02 06:11:21;;;;;;;10.02;9.13;;;30.30;49.60;;;;;;4971547;28;20232;-52
2021/01/02 06:13:52;;;;;;;9.45;8.60;;;30.30;49.80;;;;;;4970136;28;20263;-51
2021/01/02 06:16:24;;;;;;;8.68;7.88;;;30.40;49.50;;;;;;4968782;28;20240;-50
2021/01/02 06:18:55;;;;;;;9.35;8.52;;;30.40;49.60;;;;;;4969030;28;20323;-51
2021/01/02 06:21:27;;;;;;;9.98;8.98;;;30.50;49.50;;;;;;4971302;28;20235;-52
2021/01/02 06:23:58;;;;;;;8.98;8.07;;;30.50;49.40;;;;;;4971123;28;20236;-49
2021/01/02 06:26:28;;;;;;;10.80;9.73;;;30.60;49.70;;;;;;4970400;28;20236;-50
2021/01/02 06:29:00;;;;;;;12.02;10.93;;;30.70;49.60;;;;;;4929656;29;20234;-50
2021/01/02 06:31:32;;;;;;;11.07;9.95;;;30.70;49.20;;;;;;4928405;29;20702;-54
2021/01/02 06:34:06;;;;;;;13.05;11.82;;;30.80;49.50;;;;;;4910680;29;20619;-52
2021/01/02 06:36:37;;;;;;;10.88;9.88;;;30.90;48.80;;;;;;4910323;28;20243;-54
2021/01/02 06:39:22;;;;;;;10.07;9.18;;;30.90;49.00;;;;;;4910336;29;20234;-52
2021/01/02 06:41:53;;;;;;;11.07;10.05;;;31.00;49.10;;;;;;4914536;28;20241;-52
2021/01/02 06:44:42;;;;;;;10.07;8.90;;;31.10;48.80;;;;;;4910988;29;20234;-52
2021/01/02 06:47:23;;;;;;;11.77;10.77;;;31.20;48.60;;;;;;4912683;28;20238;-50
2021/01/02 06:49:54;;;;;;;10.70;9.63;;;31.20;48.20;;;;;;4908832;28;20404;-55
2021/01/02 06:52:33;;;;;;;10.38;9.52;;;31.30;48.60;;;;;;4906543;28;20243;-53
2021/01/02 06:55:20;;;;;;;11.73;9.45;;;31.30;48.60;;;;;;4954059;28;20229;-52
2021/01/02 06:57:51;;;;;;;10.73;9.80;;;31.40;49.20;;;;;;4950889;28;20658;-55
2021/01/02 07:00:23;;;;;;;10.70;9.65;;;31.40;48.50;;;;;;4971316;28;20237;-55
2021/01/02 07:02:55;;;;;;;10.50;9.43;;;31.40;48.10;;;;;;4945545;28;20237;-52
2021/01/02 07:05:43;;;;;;;11.05;10.05;;;31.50;47.80;;;;;;4991352;28;20229;-56
2021/01/02 07:08:41;;;;;;;8.98;8.18;;;31.50;49.00;;;;;;4967128;28;20331;-52
2021/01/02 07:11:31;;;;;;;8.98;8.25;;;31.50;49.40;;;;;;4968228;28;20315;-52
2021/01/02 07:14:24;;;;;;;10.75;9.82;;;31.50;49.00;;;;;;4972410;28;20271;-55
2021/01/02 07:16:56;;;;;;;10.07;9.18;;;31.50;49.40;;;;;;4974651;28;20321;-55
2021/01/02 07:19:53;;;;;;;9.60;8.60;;;31.50;48.70;;;;;;4948570;28;20264;-51
2021/01/02 07:22:27;;;;;;;9.35;8.32;;;31.50;49.20;;;;;;4964903;28;20236;-55
2021/01/02 07:25:00;;;;;;;10.18;9.25;;;31.50;49.60;;;;;;4961398;28;20236;-56
2021/01/02 07:27:32;;;;;;;10.05;8.90;;;31.60;49.70;;;;;;4967958;28;20696;-55
2021/01/02 07:30:07;;;;;;;9.23;8.45;;;31.50;49.00;;;;;;4966872;28;20232;-50
2021/01/02 07:32:38;;;;;;;8.57;7.72;;;31.50;48.30;;;;;;4966894;28;20243;-51
2021/01/02 07:35:10;;;;;;;8.95;8.15;;;31.60;48.50;;;;;;4967189;28;20736;-52
2021/01/02 07:37:42;;;;;;;9.48;8.57;;;31.60;48.20;;;;;;4966674;28;20332;-51
2021/01/02 07:40:13;;;;;;;10.40;9.30;;;31.60;47.80;;;;;;4966734;28;21043;-50
2021/01/02 07:42:49;;;;;;;8.82;7.97;;;31.70;49.40;;;;;;4966478;28;20245;-55
2021/01/02 07:45:21;;;;;;;8.40;7.60;;;31.70;48.60;;;;;;4966281;28;20262;-54
2021/01/02 07:47:54;;;;;;;9.05;8.15;;;31.80;48.20;;;;;;4966416;28;20681;-55
2021/01/02 07:50:27;;;;;;;9.15;8.25;;;31.80;47.90;;;;;;4966319;28;20758;-52
2021/01/02 07:52:57;;;;;;;9.05;8.10;;;31.80;47.50;;;;;;5002113;28;20588;-53
2021/01/02 07:55:28;;;;;;;8.48;7.68;;;31.90;47.60;;;;;;4991705;28;20657;-52
2021/01/02 07:57:59;;;;;;;8.35;7.35;;;31.90;47.50;;;;;;4967492;28;20224;-51
2021/01/02 08:00:29;;;;;;;7.55;6.95;;;32.00;47.50;;;;;;4966209;28;20309;-54
2021/01/02 08:03:04;;;;;;;9.27;8.38;;;32.10;47.50;;;;;;4962983;28;20237;-53
2021/01/02 08:05:35;;;;;;;10.07;8.02;;;32.10;47.20;;;;;;4968260;28;20240;-52
2021/01/02 08:08:07;;;;;;;9.30;8.13;;;32.10;46.80;;;;;;4964142;28;20267;-51
2021/01/02 08:10:44;;;;;;;9.18;8.27;;;32.20;48.00;;;;;;4966819;28;20237;-54
2021/01/02 08:13:14;;;;;;;8.48;7.57;;;32.30;47.50;;;;;;4965707;28;20236;-51
2021/01/02 08:15:53;;;;;;;8.38;7.57;;;32.20;47.90;;;;;;5027411;28;20291;-52
2021/01/02 08:18:23;;;;;;;11.32;10.07;;;32.30;48.50;;;;;;4930237;29;20241;-51
2021/01/02 08:21:02;;;;;;;9.20;8.30;;;32.30;49.00;;;;;;4930421;29;20241;-49
2021/01/02 08:23:32;;;;;;;9.10;8.25;;;32.30;47.40;;;;;;4891827;29;20614;-55
2021/01/02 08:26:03;;;;;;;8.40;7.70;;;32.30;48.40;;;;;;4891594;29;20330;-51
2021/01/02 08:28:34;;;;;;;8.57;7.78;;;32.30;47.60;;;;;;4892473;29;20239;-54
2021/01/02 08:31:04;;;;;;;8.45;7.65;;;32.30;47.10;;;;;;4853874;29;20240;-51
2021/01/02 08:33:35;;;;;;;8.82;7.93;;;32.30;47.40;;;;;;4841883;29;20735;-49
2021/01/02 08:36:13;;;;;;;9.43;7.82;;;32.40;48.30;;;;;;4847712;29;20770;-50
2021/01/02 08:38:43;;;;;;;8.25;7.55;;;32.40;48.30;;;;;;4850551;29;20319;-54
2021/01/02 08:41:20;;;;;;;9.13;8.30;;;32.40;47.20;;;;;;4803506;29;20316;-50
2021/01/02 08:43:51;;;;;;;8.82;7.95;;;32.50;47.40;;;;;;4832762;29;20285;-49
2021/01/02 08:46:24;;;;;;;10.05;9.05;;;32.40;47.80;;;;;;4852771;29;20295;-52
2021/01/02 08:48:56;;;;;;;12.90;8.60;;;32.40;47.90;;;;;;4886615;28;21613;-51
2021/01/02 08:51:29;;;;;;;9.60;8.80;;;32.40;48.20;;;;;;4884366;28;20231;-49
2021/01/02 08:53:59;;;;;;;10.10;9.10;;;32.30;48.40;;;;;;4893637;28;20235;-52
2021/01/02 08:56:33;;;;;;;9.13;8.32;;;32.30;48.50;;;;;;4909353;29;20574;-51
2021/01/02 08:59:04;;;;;;;10.05;9.13;;;32.30;48.40;;;;;;4911338;29;20278;-52
2021/01/02 09:01:35;;;;;;;10.13;9.10;;;32.20;47.60;;;;;;4824305;29;20243;-51
2021/01/02 09:04:12;;;;;;;10.70;9.80;;;32.10;47.40;;;;;;4854651;29;20240;-52
2021/01/02 09:06:44;;;;;;;12.52;8.82;;;32.20;47.60;;;;;;4851298;29;20236;-51
2021/01/02 09:09:14;;;;;;;11.15;9.30;;;32.20;48.50;;;;;;4854988;29;20633;-52
2021/01/02 09:11:48;;;;;;;10.20;9.23;;;32.20;49.00;;;;;;4814923;29;20599;-54
2021/01/02 09:14:19;;;;;;;10.00;9.00;;;32.20;49.30;;;;;;4816559;29;20245;-50
2021/01/02 09:17:00;;;;;;;9.13;8.23;;;32.20;49.70;;;;;;4815700;29;20252;-49
2021/01/02 09:19:32;;;;;;;10.48;8.23;;;32.20;49.80;;;;;;4809952;29;20672;-50
2021/01/02 09:22:16;;;;;;;10.77;9.15;;;32.20;49.80;;;;;;4814293;29;20238;-50
2021/01/02 09:24:47;;;;;;;8.68;7.85;;;32.10;50.10;;;;;;4814323;29;20238;-49
2021/01/02 09:27:17;;;;;;;9.43;8.40;;;32.00;50.20;;;;;;4916751;28;20228;-51
2021/01/02 09:29:48;;;;;;;9.80;8.80;;;32.00;50.10;;;;;;4987732;28;20258;-53
2021/01/02 09:32:19;;;;;;;10.60;9.55;;;31.90;50.50;;;;;;5000464;28;20603;-51
2021/01/02 09:34:50;;;;;;;8.32;7.63;;;31.80;50.80;;;;;;5013253;28;20734;-51
2021/01/02 09:37:21;;;;;;;9.65;8.65;;;31.80;50.70;;;;;;4967399;28;20259;-49
2021/01/02 09:40:16;;;;;;;9.48;8.57;;;31.70;50.90;;;;;;4962610;28;20323;-51
2021/01/02 09:42:46;;;;;;;9.90;9.00;;;31.80;51.20;;;;;;4964872;28;20251;-52
2021/01/02 09:45:18;;;;;;;8.18;7.47;;;31.80;51.40;;;;;;4968985;28;20233;-49
2021/01/02 09:47:48;;;;;;;8.95;8.15;;;31.80;51.40;;;;;;4964469;28;20586;-50
2021/01/02 09:50:19;;;;;;;8.27;7.55;;;31.90;51.40;;;;;;4966397;28;20702;-53
2021/01/02 09:52:49;;;;;;;8.88;8.07;;;31.90;51.30;;;;;;4966904;28;20328;-49
2021/01/02 09:55:21;;;;;;;9.07;8.27;;;32.10;51.00;;;;;;4963862;28;20973;-55
2021/01/02 09:57:52;;;;;;;8.85;7.95;;;32.20;50.80;;;;;;4964261;28;20684;-54
2021/01/02 10:00:23;;;;;;;8.48;7.63;;;32.30;50.50;;;;;;4966494;28;20324;-52
2021/01/02 10:02:54;;;;;;;8.48;7.68;;;32.30;50.40;;;;;;4967877;28;20628;-53
2021/01/02 10:05:43;;;;;;;19.15;17.33;;;32.40;49.70;;;;;;4966684;28;20334;-49
2021/01/02 10:08:14;;;;;;;12.07;10.98;;;32.30;48.60;;;;;;4964675;28;20590;-54
2021/01/02 10:10:46;;;;;;;8.93;8.13;;;32.30;48.20;;;;;;4961413;28;20252;-53
2021/01/02 10:13:17;;;;;;;9.45;8.27;;;32.40;48.40;;;;;;4964599;28;20311;-54
2021/01/02 10:15:49;;;;;;;8.60;7.60;;;32.30;48.70;;;;;;4964772;28;20578;-54
2021/01/02 10:18:19;;;;;;;8.40;7.50;;;32.30;49.00;;;;;;4967294;28;20236;-52
2021/01/02 10:20:50;;;;;;;11.27;9.48;;;32.40;49.30;;;;;;4968180;28;20402;-53
2021/01/02 10:23:21;;;;;;;8.98;8.13;;;32.60;48.80;;;;;;4968165;28;20732;-52
2021/01/02 10:25:53;;;;;;;9.98;7.80;;;32.80;48.10;;;;;;4967370;28;20320;-53
2021/01/02 10:28:24;;;;;;;10.75;9.57;;;33.00;47.40;;;;;;4967663;28;20657;-50
2021/01/02 10:30:55;;;;;;;14.70;11.32;;;33.30;46.70;;;;;;4967479;28;20228;-52
2021/01/02 10:33:25;;;;;;;12.35;11.18;;;33.50;46.40;;;;;;4969302;28;20267;-51
2021/01/02 10:35:56;;;;;;;9.88;8.57;;;33.60;46.00;;;;;;4968201;28;20243;-51
2021/01/02 10:38:27;;;;;;;8.75;7.95;;;33.80;46.10;;;;;;4967769;28;20244;-50
2021/01/02 10:40:59;;;;;;;7.30;6.60;;;33.90;45.60;;;;;;4966977;28;20290;-50
2021/01/02 10:43:29;;;;;;;9.18;7.75;;;34.00;45.50;;;;;;4972021;28;20259;-49
2021/01/02 10:46:00;;;;;;;9.60;8.45;;;34.10;45.20;;;;;;4970583;28;20597;-51
2021/01/02 10:48:30;;;;;;;14.13;9.82;;;34.00;45.00;;;;;;4970326;28;20239;-49
2021/01/02 10:51:01;;;;;;;10.98;9.25;;;33.90;45.40;;;;;;4968958;28;20235;-49
2021/01/02 10:53:32;;;;;;;8.95;8.02;;;33.70;44.50;;;;;;4967406;28;20224;-52
2021/01/02 10:56:03;;;;;;;9.15;8.15;;;33.60;44.60;;;;;;4967165;28;20359;-52
2021/01/02 10:58:34;;;;;;;8.20;7.50;;;33.40;44.70;;;;;;4964138;28;20730;-51
2021/01/02 11:01:05;;;;;;;10.13;8.90;;;33.10;45.00;;;;;;5024002;28;20249;-50
2021/01/02 11:03:36;;;;;;;9.15;8.32;;;32.90;45.20;;;;;;5026894;28;20318;-52
2021/01/02 11:06:07;;;;;;;8.70;7.90;;;32.70;45.60;;;;;;5024844;28;20226;-49
2021/01/02 11:08:38;;;;;;;8.50;7.72;;;32.50;45.90;;;;;;5022638;28;20919;-55
2021/01/02 11:11:10;;;;;;;10.82;8.13;;;32.30;46.30;;;;;;5025091;28;20317;-51
2021/01/02 11:13:40;;;;;;;8.38;7.68;;;32.10;46.70;;;;;;5026563;28;20230;-51
2021/01/02 11:16:11;;;;;;;8.20;7.40;;;32.00;46.90;;;;;;5023992;28;20306;-50
2021/01/02 11:18:44;;;;;;;8.10;7.32;;;31.80;47.20;;;;;;5029674;28;20265;-49
2021/01/02 11:21:14;;;;;;;14.02;10.45;;;31.70;47.40;;;;;;5024713;28;20599;-49
2021/01/02 11:23:44;;;;;;;11.63;10.43;;;31.60;48.10;;;;;;5024926;28;20230;-49
2021/01/02 11:26:17;;;;;;;10.82;9.75;;;31.50;48.50;;;;;;5025967;28;20603;-50
2021/01/02 11:28:47;;;;;;;10.18;9.23;;;31.40;48.90;;;;;;5027621;28;20238;-55
2021/01/02 11:31:18;;;;;;;9.75;8.85;;;31.30;49.20;;;;;;5006851;28;20229;-50
2021/01/02 11:33:48;;;;;;;10.57;9.52;;;31.20;49.60;;;;;;4964624;28;20236;-52
2021/01/02 11:36:23;;;;;;;10.75;9.75;;;31.10;49.80;;;;;;4964076;28;20603;-53
2021/01/02 11:38:54;;;;;;;11.18;9.77;;;31.00;50.10;;;;;;4961025;28;20233;-52
2021/01/02 11:41:33;;;;;;;11.55;10.50;;;31.00;50.30;;;;;;4966501;28;20620;-50
2021/01/02 11:44:03;;;;;;;11.77;10.57;;;30.90;50.70;;;;;;4961604;28;20675;-53
2021/01/02 11:46:35;;;;;;;12.05;10.88;;;30.80;50.70;;;;;;4985898;28;20295;-52
2021/01/02 11:49:05;;;;;;;14.65;11.23;;;30.80;50.90;;;;;;4972027;28;20315;-54
2021/01/02 11:51:36;;;;;;;13.02;11.68;;;30.70;51.00;;;;;;4963782;28;20332;-51
2021/01/02 11:54:07;;;;;;;13.00;11.57;;;30.60;51.20;;;;;;4955337;28;20286;-49
2021/01/02 11:56:39;;;;;;;11.50;10.40;;;30.50;51.40;;;;;;4964276;28;20323;-49
2021/01/02 11:59:10;;;;;;;15.23;11.82;;;30.40;51.50;;;;;;4964239;28;20298;-49
2021/01/02 12:01:41;;;;;;;12.80;11.43;;;30.40;51.80;;;;;;4964919;28;20348;-49
2021/01/02 12:04:12;;;;;;;13.40;11.82;;;30.30;51.90;;;;;;4964297;28;20232;-50
2021/01/02 12:06:43;;;;;;;12.82;11.20;;;30.30;52.10;;;;;;4962984;28;20251;-52
2021/01/02 12:09:14;;;;;;;14.00;12.63;;;30.20;52.20;;;;;;4977969;28;20233;-49
2021/01/02 12:11:46;;;;;;;14.10;12.60;;;30.10;52.40;;;;;;4989283;28;20572;-50
2021/01/02 12:14:17;;;;;;;14.55;13.05;;;30.10;52.60;;;;;;4959779;28;20239;-51
2021/01/02 12:16:48;;;;;;;16.67;13.07;;;30.00;52.80;;;;;;4976641;28;20313;-50
2021/01/02 12:19:20;;;;;;;14.27;12.35;;;29.90;52.90;;;;;;4962131;28;20878;-49
2021/01/02 12:21:52;;;;;;;15.73;12.55;;;29.90;53.00;;;;;;4961165;28;20236;-51
2021/01/02 12:24:23;;;;;;;13.98;12.57;;;29.80;53.20;;;;;;4979537;28;20248;-49
2021/01/02 12:26:55;;;;;;;14.27;12.90;;;29.80;53.40;;;;;;4965295;28;20243;-53
2021/01/02 12:29:26;;;;;;;13.63;12.30;;;29.70;53.50;;;;;;4962796;28;20775;-51
2021/01/02 12:31:57;;;;;;;14.88;13.38;;;29.70;53.60;;;;;;4962899;28;20239;-49
2021/01/02 12:34:29;;;;;;;14.73;13.27;;;29.70;53.90;;;;;;4962528;28;20670;-49
2021/01/02 12:36:59;;;;;;;14.80;12.95;;;29.60;54.00;;;;;;4960120;28;20319;-53
2021/01/02 12:39:30;;;;;;;14.88;13.18;;;29.60;54.10;;;;;;4967395;28;20324;-52
2021/01/02 12:42:02;;;;;;;14.52;13.05;;;29.50;54.20;;;;;;4963750;28;20232;-52
2021/01/02 12:44:32;;;;;;;16.08;14.23;;;29.50;54.40;;;;;;4962260;28;20663;-53
2021/01/02 12:47:05;;;;;;;15.10;13.60;;;29.50;54.40;;;;;;4962277;28;20248;-50
2021/01/02 12:49:36;;;;;;;15.38;13.88;;;29.40;54.60;;;;;;4961938;28;20240;-51
2021/01/02 12:52:08;;;;;;;16.10;13.25;;;29.40;54.70;;;;;;4963491;28;20232;-49
2021/01/02 12:54:39;;;;;;;16.55;14.85;;;29.30;54.80;;;;;;4962823;28;20256;-49
2021/01/02 12:57:11;;;;;;;16.33;14.73;;;29.30;54.90;;;;;;4956956;28;20256;-53
2021/01/02 12:59:42;;;;;;;16.70;14.98;;;29.20;55.00;;;;;;4963495;28;20239;-51
2021/01/02 13:02:12;;;;;;;17.00;15.20;;;29.20;55.10;;;;;;4965823;28;20235;-53
2021/01/02 13:04:43;;;;;;;17.00;15.30;;;29.10;55.20;;;;;;4963871;28;20240;-54
2021/01/02 13:07:14;;;;;;;16.90;15.20;;;29.10;55.20;;;;;;4963018;28;20263;-54
2021/01/02 13:09:45;;;;;;;15.90;14.27;;;29.10;55.30;;;;;;4966927;28;20264;-52
2021/01/02 13:12:21;;;;;;;16.35;14.82;;;29.00;55.40;;;;;;4967499;28;20664;-55
2021/01/02 13:14:51;;;;;;;16.50;14.85;;;29.00;55.50;;;;;;4966707;28;20239;-55